Tiempo atmosférico en la estación meteorológica de Chinchilla, Albacete (880 m.)



Fecha
DESCASC
Temp. máxima en grados centígrados (hora)
DESCASC
Temp. mínima en grados centígrados (hora)
DESCASC
Temp. media en grados centígrados
DESCASC
Racha de viento máxima en m/sg (hora)
DESCASC
Velocidad máxima media en intervalos de 10 minutos(hora)
DESCASC
Precipitaciones diarias en mm
DESCASC
Precipitaciones de 00:00 a 06:00 en mm
DESCASC
Precipitaciones de 06:00 a 12:00 en mm
DESCASC
Precipitaciones de 12:00 a 18:00 en mm
DESCASC
Precipitaciones de 18:00 a 24:00 en mm
DESCASC
18-01-2018 14.9 (16:50) 2.1 (02:50) 8.5 6.11 (12:40) 2.78 (04:00) 0 0 0 0 0
17-01-2018 10.5 (17:50) 3 (09:10) 6.8 13.33 (02:00) 8.61 (02:00) 0 0 0 0 0
16-01-2018 11.2 (17:00) 0.6 (00:50) 5.9 12.22 (16:50) 7.5 (15:50) 0 0 0 0 0
15-01-2018 7 (17:00) -1.3 (08:50) 2.9 8.89 (22:10) 5 (23:50) 0.1 0 0.1 0 0
14-01-2018 4.8 (15:40) 1.2 (00:00) 3 11.39 (01:20) 6.94 (01:20) 2.4 0 2.4 0 0
13-01-2018 9.6 (16:40) -0.9 (-00:0) 4.4 11.11 (21:20) 6.11 (18:00) 0.1 0 0 0 0.1
12-01-2018 6.7 (17:20) -1.5 (-00:0) 2.6 14.72 (18:40) 6.94 (15:20) 0 0 0 0 0
11-01-2018 5.5 (16:50) 1.3 (00:00) 3.4 15.56 (17:00) 7.78 (23:20) 0.5 0 0.4 0.1 0
10-01-2018 7.5 (16:30) 2 (00:00) 4.8 3.06 (23:00) 0 (00:10) 8.2 2.5 1.1 0 4.6
09-01-2018 4.8 (15:10) -2.3 (-00:0) 1.3 0 (00:10) 0 (00:10) 0.2 0 0 0 0.2
08-01-2018 8.2 (17:30) -1.2 (-00:0) 3.5 0 (00:10) 0 (00:10) 0.1 0 0 0.1 0
07-01-2018 6.7 (15:10) -0.5 (-00:0) 3.1 0 (00:10) 0 (00:10) 0.4 0 0.4 0 0
06-01-2018 8.4 (14:10) -0.3 (00:00) 4 0.28 (16:50) 0 (00:10) 5.4 0 0 4 1.4
05-01-2018 9.9 (17:10) 4.2 (00:00) 7 13.06 (00:20) 8.61 (13:00) 0 0 0 0 0
04-01-2018 9.8 (15:10) 6.7 (10:20) 8.3 15 (23:59) 7.5 (23:10) 0 0 0 0 0
03-01-2018 9.6 (15:40) 4.4 (00:00) 7 12.5 (20:40) 8.33 (20:40) 0.1 0 0.1 0 0
02-01-2018 10.1 (16:30) 2.8 (00:00) 6.5 15.28 (16:40) 8.61 (00:10) 0 0 0 0 0
01-01-2018 10.6 (15:40) 1.3 (00:00) 6 15 (23:00) 9.72 (16:50) 0 0 0 0 0
31-12-2017 9.5 (15:50) 3.6 (00:00) 6.5 15.28 (23:30) 8.89 (23:30) 0.2 0 0.1 0 0.1
30-12-2017 11 (16:40) 5.9 (00:00) 8.5 0 (00:10) 0 (00:10) 0 0 0 0 0
29-12-2017 12.1 (15:30) 7.8 (00:00) 10 0 (00:10) 0 (00:10) 0 0 0 0 0
28-12-2017 12.6 (17:50) 3.2 (00:00) 7.9 13.61 (11:50) 8.61 (11:50) 0 0 0 0 0
27-12-2017 7.7 (17:40) 2.9 (00:00) 5.3 19.72 (05:20) 12.78 (06:10) 4 0 4 0 0
26-12-2017 8 (13:50) 2.6 (00:00) 5.3 14.17 (15:30) 8.61 (15:00) 0.3 0 0.2 0.1 0
25-12-2017 8.3 (15:30) 2.7 (00:00) 5.5 6.94 (16:20) 3.06 (16:10) 0 0 0 0 0
24-12-2017 11.7 (14:20) 3.5 (00:00) 7.6 8.33 (14:30) 5 (14:40) 0 0 0 0 0

Gráficas

Temp. máximas Temp. mínimas Temp. medias Precipitaciones Rachas de viento máximas Velocidades máximas media en intervalos de 10 minutos

Datos horarios

Fecha y hora oficial Temperatura (ºC) Velocidad del viento (km/h) Dirección del viento Racha (km/h) Dirección de racha Precipitación (mm) Presión (hPa) Tendencia (hPa) Humedad (%)
2018-01-22 23:00:00 8 10 Norte 27 Norte 0 924.8 0.5 68
2018-01-22 22:00:00 8.8 17 Norte 33 Norte 0 924.6 0.2 62
2018-01-22 21:00:00 9.3 17 Norte 28 Norte 0 924.6 0.4 58
2018-01-22 20:00:00 10 18 Norte 31 Norte 0 924.3 -0.1 52
2018-01-22 19:00:00 12.5 16 Norte 27 Norte 0 924.4 -0.1 40
2018-01-22 18:00:00 14.2 12 Norte 36 Noroeste 0 924.2 -0.7 39
2018-01-22 17:00:00 14.6 10 Noroeste 31 Noroeste 0 924.4 -1.1 42
2018-01-22 16:00:00 12.9 23 Noroeste 40 Norte 0 924.5 -1.4 48
2018-01-22 15:00:00 12.2 21 Norte 39 Norte 0 924.9 -0.8 53
2018-01-22 14:00:00 11 24 Norte 37 Noroeste 0 925.5 0.4 61
2018-01-22 13:00:00 9.7 17 Norte 40 Noroeste 0 925.9 1.4 70
2018-01-22 12:00:00 7.9 23 Noroeste 37 Norte 0 925.7 1.3 81
2018-01-22 11:00:00 5.9 15 Noroeste 33 Noroeste 0 925.1 0.6 90
2018-01-22 10:00:00 4.7 18 Norte 29 Norte 0 924.5 0.2 91
2018-01-22 09:00:00 4.4 20 Norte 35 Norte 0 924.4 -0.5 91
2018-01-22 08:00:00 4.8 6 Noroeste 28 Norte 0 924.5 -1 90
2018-01-22 07:00:00 4.7 16 Norte 28 Norte 0 924.3 -1.1 90
2018-01-22 06:00:00 4.5 5 Norte 22 Norte 0 924.9 -0.6 88
2018-01-22 05:00:00 5.4 5 Noroeste 28 Norte 0 925.5 -0.7 84
2018-01-22 04:00:00 6 20 Norte 30 Norte 0 925.4 -1.1 83
2018-01-22 03:00:00 6.1 14 Noroeste 32 Norte 0 925.5 -0.8 82
2018-01-22 02:00:00 6.4 10 Noroeste 25 Noroeste 0 926.2 -0.3 81
2018-01-22 01:00:00 6.6 0 Calma 13 Oeste 0 926.5 0.1 77
2018-01-22 00:00:00 7.6 5 Noroeste 23 Noroeste 0 926.3 0.1 72
2018-01-21 23:00:00 8.2 11 Noroeste 26 Noroeste 0 926.5 0.8 68
2018-01-21 22:00:00 9.2 13 Noroeste 29 Norte 0 926.4 1.4 65
2018-01-21 21:00:00 9.2 2 Noroeste 26 Noroeste 0 926.2 1.1 65
2018-01-21 20:00:00 10 11 Noroeste 28 Noroeste 0 925.7 0.5 62
2018-01-21 19:00:00 11.2 14 Noroeste 34 Oeste 0 925 0.3 58
2018-01-21 18:00:00 12.4 12 Noroeste 39 Norte 0 925.1 0.3 53
2018-01-21 17:00:00 12.2 20 Norte 45 Norte 0 925.2 -0.4 53
2018-01-21 16:00:00 12.2 26 Norte 49 Noroeste 0 924.7 -1.4 54
2018-01-21 15:00:00 11.4 29 Norte 47 Noroeste 0 924.8 -1 56
2018-01-21 14:00:00 10 22 Noroeste 39 Noroeste 0 925.6 0.6 61
2018-01-21 13:00:00 8.4 23 Norte 37 Norte 0 926.1 1.9 66
2018-01-21 12:00:00 6.5 10 Noroeste 36 Oeste 0 925.8 1.8 72
2018-01-21 11:00:00 4.5 0 Calma 35 Noroeste 0 925 1.4 75
2018-01-21 10:00:00 3.2 21 Noroeste 36 Noroeste 0 924.2 0.8 77
2018-01-21 09:00:00 3 19 Noroeste 42 Noroeste 0 924 0.3 77
2018-01-21 08:00:00 3.2 2 Noroeste 15 Noroeste 0 923.6 -0.3 77
2018-01-21 07:00:00 3.1 0 Calma 21 Noroeste 0 923.4 -0.8 75
2018-01-21 06:00:00 4 11 Noroeste 33 Noroeste 0 923.7 -0.6 73
2018-01-21 05:00:00 4.4 17 Noroeste 29 Noroeste 0 923.9 -0.4 72
2018-01-21 04:00:00 4.9 5 Noroeste 27 Oeste 0 924.2 -0.4 69
2018-01-21 03:00:00 5.4 13 Noroeste 31 Noroeste 0 924.3 -0.1 66
2018-01-21 02:00:00 5.4 11 Noroeste 37 Noroeste 0 924.3 -0.1 68
2018-01-21 01:00:00 5.7 12 Noroeste 37 Noroeste 0 924.6 0.6 67
2018-01-21 00:00:00 5.6 4 Noroeste 26 Noroeste 0 924.4 0.6 66
2018-01-20 23:00:00 6.6 11 Noroeste 27 Noroeste 0 924.4 0.7 61
2018-01-20 22:00:00 7.2 17 Noroeste 36 Oeste 0 924 0.5 56
2018-01-20 21:00:00 7.9 12 Noroeste 24 Noroeste 0 923.8 0.8 38
2018-01-20 20:00:00 9.6 17 Noroeste 34 Noroeste 0 923.7 0.7 34
2018-01-20 19:00:00 10.1 13 Noroeste 39 Norte 0 923.5 0.8 34
2018-01-20 18:00:00 11.7 18 Noroeste 44 Noroeste 0 923 -0.4 28
2018-01-20 17:00:00 12.7 26 Noroeste 46 Noroeste 0 923 -1.5 28
2018-01-20 16:00:00 11.6 21 Noroeste 45 Noroeste 0 922.7 -1.8 30
2018-01-20 15:00:00 10.8 24 Noroeste 43 Oeste 0 923.4 -0.8 40
2018-01-20 14:00:00 9.2 20 Noroeste 38 Noroeste 0 924.5 0.8 56
2018-01-20 13:00:00 7.4 13 Noroeste 31 Noroeste 0 924.5 1.7 67
2018-01-20 12:00:00 5.5 17 Noroeste 32 Noroeste 0 924.2 1.8 73
2018-01-20 11:00:00 3.5 8 Noroeste 26 Noroeste 0 923.7 1.7 81
2018-01-20 10:00:00 2.5 11 Noroeste 27 Norte 0 922.8 1.5 85
2018-01-20 09:00:00 1.5 3 Noroeste 23 Noroeste 0 922.4 1 87
2018-01-20 08:00:00 2.3 7 Noroeste 28 Noroeste 0 922 1 85
2018-01-20 07:00:00 2.4 7 Noroeste 27 Noroeste 0 921.3 0.2 87
2018-01-20 06:00:00 1.4 0 Calma 13 Noroeste 0 921.4 0.7 88
2018-01-20 05:00:00 1.3 0 Calma 13 Noroeste 0 921 0.1 86
2018-01-20 04:00:00 1.8 0 Calma 13 Noroeste 0 921.1 0 85
2018-01-20 03:00:00 2.2 0 Calma 19 Norte 0 920.7 -0.5 82
2018-01-20 02:00:00 2.7 5 Norte 17 Norte 0 920.9 0.3 79
2018-01-20 01:00:00 3.4 6 Norte 14 Norte 0 921.1 0.5 73
2018-01-20 00:00:00 4.1 0 Calma 16 Norte 0 921.2 1.2 68
2018-01-19 23:00:00 4.8 0 Calma 21 Norte 0 920.6 1.3 64
2018-01-19 22:00:00 6 6 Norte 23 Noroeste 0 920.6 1.5 58
2018-01-19 21:00:00 7.9 10 Noroeste 27 Noroeste 0 920 1.1 50
2018-01-19 20:00:00 8.5 14 Norte 24 Norte 0 919.3 0.5 47
2018-01-19 19:00:00 9.9 0 Calma 16 Norte 0 919.1 0.4 40
2018-01-19 18:00:00 11.1 4 Norte 15 Norte 0 918.9 0.4 37
2018-01-19 17:00:00 12.3 0 Calma 11 Noroeste 0 918.8 0 33
2018-01-19 16:00:00 12 0 Calma 5 Noroeste 0 918.7 0.4 36
2018-01-19 15:00:00 9.8 0 Calma 20 Norte 0 918.5 0.3 52
2018-01-19 14:00:00 7.5 0 Calma -- -- 0 918.8 0.7 74
2018-01-19 13:00:00 5.5 0 Calma -- -- 0 918.3 1 83
2018-01-19 12:00:00 3.8 0 Calma -- -- 0 918.2 1.5 84
2018-01-19 11:00:00 3.9 0 Calma -- -- 0 918.1 1.7 78
2018-01-19 10:00:00 4.6 0 Calma 10 Norte 0 917.3 1.1 78
2018-01-19 09:00:00 3.6 0 Calma -- -- 0 916.7 0.3 83
2018-01-19 08:00:00 3 0 Calma 0 Calma 0 916.4 -0.3 81
2018-01-19 07:00:00 4.7 0 Calma -- -- 0 916.2 -0.9 75
2018-01-19 06:00:00 4.6 0 Calma -- -- 0 916.4 -1 78
2018-01-19 05:00:00 3.7 0 Calma -- -- 0 916.7 -1.1 83
2018-01-19 04:00:00 4.1 0 Calma -- -- 0 917.1 -1.2 82
2018-01-19 03:00:00 4.1 0 Calma -- -- 0 917.4 -0.6 81
2018-01-19 02:00:00 4.5 0 Calma -- -- 0 917.8 -1 80
2018-01-19 01:00:00 4.8 0 Calma -- -- 0 918.3 -0.4 76
2018-01-19 00:00:00 5.4 0 Calma -- -- 0 918 -1.1 74
2018-01-18 23:00:00 4.8 0 Calma -- -- 0 918.8 -0.9 74
2018-01-18 22:00:00 6.8 0 Calma -- -- 0 918.7 -1.7 68
2018-01-18 21:00:00 6.9 0 Calma -- -- 0 919.1 -1.1 67
2018-01-18 20:00:00 7.6 0 Calma -- -- 0 919.7 -0.6 63
2018-01-18 19:00:00 9.6 0 Calma 13 Sur 0 920.4 -0.5 52
2018-01-18 18:00:00 13.3 0 Calma 5 Sudeste 0 920.2 -1.5 43
2018-01-18 17:00:00 14.1 0 Calma -- -- 0 920.3 -2.4 44
2018-01-18 16:00:00 13.3 0 Calma 10 Sudeste 0 920.9 -2.3 47
2018-01-18 15:00:00 12.8 0 Calma 10 Sudeste 0 921.7 -1.5 51
2018-01-18 14:00:00 10.9 0 Calma 15 Sur 0 922.7 0.1 59
2018-01-18 13:00:00 9.1 0 Calma 22 Sudeste 0 923.2 0.8 69
2018-01-18 12:00:00 6.5 3 Sudeste 17 Sudeste 0 923.2 0.9 84
2018-01-18 11:00:00 5.8 0 Calma 10 Sudeste 0 922.6 0.9 88
2018-01-18 10:00:00 3.9 0 Calma 12 Sur 0 922.4 0.7 88
2018-01-18 09:00:00 3.5 0 Calma -- -- 0 922.3 0.5 88
2018-01-18 08:00:00 2.4 0 Calma -- -- 0 921.7 -0.3 87
2018-01-18 07:00:00 2.3 0 Calma 9 Sudeste 0 921.7 -0.4 84
2018-01-18 06:00:00 2.8 0 Calma 13 Sudeste 0 921.8 -0.2 82
2018-01-18 05:00:00 2.9 2 Este 17 Este 0 922 -0.4 79
2018-01-18 04:00:00 2.4 10 Este 14 Este 0 922.1 -0.5 79
2018-01-18 03:00:00 2.3 0 Calma 5 Sudeste 0 922 -0.7 84
2018-01-18 02:00:00 2.4 0 Calma -- -- 0 922.4 -0.2 84
2018-01-18 01:00:00 3 0 Calma -- -- 0 922.6 -0.1 85
2018-01-18 00:00:00 3.7 0 Calma -- -- 0 922.7 -0.2 83
2018-01-17 23:00:00 3.7 0 Calma -- -- 0 922.6 -0.1 81
2018-01-17 22:00:00 4.1 0 Calma 9 Sur 0 922.7 0.1 78
2018-01-17 21:00:00 5.9 0 Calma 12 Norte 0 922.9 0.2 72
2018-01-17 20:00:00 6.8 0 Calma 26 Norte 0 922.7 0.2 65
2018-01-17 19:00:00 8.3 0 Calma 15 Noroeste 0 922.6 0.2 58
2018-01-17 18:00:00 10.4 0 Calma 24 Norte 0 922.7 0.3 52
2018-01-17 17:00:00 9.9 12 Noroeste 30 Noroeste 0 922.5 -0.3 55
2018-01-17 16:00:00 9.4 12 Norte 27 Norte 0 922.4 -0.6 59
2018-01-17 15:00:00 7.7 13 Noroeste 24 Norte 0 922.4 -0.2 75
2018-01-17 14:00:00 5.8 8 Noroeste 24 Noroeste 0 922.8 0.7 94
2018-01-17 13:00:00 4.2 6 Noroeste 27 Noroeste 0 923 1.7 94
2018-01-17 12:00:00 3.7 5 Noroeste 24 Noroeste 0 922.6 1.7 94
2018-01-17 11:00:00 3.1 12 Noroeste 36 Noroeste 0 922.1 1.3 94
2018-01-17 10:00:00 3.3 22 Noroeste 42 Norte 0 921.3 0.5 94
2018-01-17 09:00:00 3.1 26 Noroeste 45 Noroeste 0 920.9 0.1 94
2018-01-17 08:00:00 3.3 26 Norte 44 Norte 0 920.8 -0.6 94
2018-01-17 07:00:00 3.6 26 Norte 45 Norte 0 920.8 -1 94
2018-01-17 06:00:00 3.4 22 Norte 42 Norte 0 920.8 -1.2 94
2018-01-17 05:00:00 3.8 27 Norte 46 Norte 0 921.4 -1.3 91
2018-01-17 04:00:00 4.3 26 Norte 44 Norte 0 921.8 -1.5 81
2018-01-17 03:00:00 4.2 28 Norte 44 Norte 0 922 -1.7 78
2018-01-17 02:00:00 4.6 31 Norte 48 Noroeste 0 922.7 -1.7 74
2018-01-17 01:00:00 4.9 13 Norte 26 Norte 0 923.3 -1 72
2018-01-17 00:00:00 5.1 12 Norte 25 Norte 0 923.7 -0.7 70
2018-01-16 23:00:00 5.8 15 Norte 25 Noroeste 0 924.4 0 67
2018-01-16 22:00:00 6 11 Norte 26 Norte 0 924.3 -0.1 68
2018-01-16 21:00:00 6.8 10 Noroeste 24 Noroeste 0 924.4 -0.1 62
2018-01-16 20:00:00 7.8 13 Noroeste 39 Noroeste 0 924.4 0.2 59
2018-01-16 19:00:00 8.7 9 Noroeste 36 Noroeste 0 924.4 0.3 56
2018-01-16 18:00:00 10.5 11 Noroeste 44 Norte 0 924.5 -0.8 56
2018-01-16 17:00:00 10.5 23 Norte 44 Norte 0 924.2 -1.8 52
2018-01-16 16:00:00 9.9 24 Norte 42 Norte 0 924.1 -2.3 55
2018-01-16 15:00:00 9.4 19 Noroeste 35 Noroeste 0 925.3 -0.6 53
2018-01-16 14:00:00 8 4 Noroeste 20 Noroeste 0 926 0.8 55
2018-01-16 13:00:00 5.6 4 Norte 32 Norte 0 926.4 2.1 59
2018-01-16 12:00:00 4.7 17 Norte 34 Norte 0 925.9 1.6 64
2018-01-16 11:00:00 2.7 17 Norte 33 Norte 0 925.2 1.4 72
2018-01-16 10:00:00 1.4 9 Norte 21 Norte 0 924.3 0.3 79
2018-01-16 09:00:00 1 3 Norte 24 Noroeste 0 924.3 0.6 78
2018-01-16 08:00:00 1.5 6 Noroeste 26 Noroeste 0 923.8 0 77
2018-01-16 07:00:00 1.3 0 Calma 34 Noroeste 0 924 -0.1 76
2018-01-16 06:00:00 2 20 Noroeste 41 Noroeste 0 923.7 -0.6 75
2018-01-16 05:00:00 1.5 9 Noroeste 26 Norte 0 923.8 -0.9 76
2018-01-16 04:00:00 1.4 11 Noroeste 23 Noroeste 0 924.1 -0.7 78
2018-01-16 03:00:00 1 3 Noroeste 21 Noroeste 0 924.3 -0.8 80
2018-01-16 02:00:00 1.4 14 Noroeste 22 Noroeste 0 924.7 0 82
2018-01-16 01:00:00 1.1 7 Noroeste 22 Noroeste 0 924.8 0.4 83
2018-01-16 00:00:00 2 15 Noroeste 32 Noroeste 0 925.1 1.2 78
2018-01-15 23:00:00 2 6 Noroeste 32 Noroeste 0 924.7 0.9 75
2018-01-15 22:00:00 2.6 5 Noroeste 19 Noroeste 0 924.4 1.2 72
2018-01-15 21:00:00 3.1 8 Noroeste 23 Noroeste 0 923.9 0.8 70
2018-01-15 20:00:00 3.5 6 Noroeste 18 Norte 0 923.8 0.9 65
2018-01-15 19:00:00 5.2 0 Calma 12 Oeste 0 923.2 0.7 56
2018-01-15 18:00:00 6.5 0 Calma 13 Oeste 0 923.1 0.7 52
2018-01-15 17:00:00 6.5 0 Calma 15 Oeste 0 922.9 0.1 54
2018-01-15 16:00:00 5.7 0 Calma 19 Noroeste 0 922.5 -0.5 57
2018-01-15 15:00:00 4.6 8 Norte 21 Noroeste 0 922.4 0.5 62
2018-01-15 14:00:00 4.2 3 Noroeste 15 Noroeste 0 922.8 1.6 67
2018-01-15 13:00:00 4 0 Calma 3 Noroeste 0 923 2.9 70
2018-01-15 12:00:00 2.4 0 Calma 16 Norte 0 921.9 2.5 79
2018-01-15 11:00:00 0.7 0 Calma -- -- 0.1 921.2 2.3 89
2018-01-15 10:00:00 -0.5 0 Calma 6 Norte 0 920.1 1.7 90
2018-01-15 09:00:00 -0.9 0 Calma 3 Norte 0 919.4 1.2 90
2018-01-15 08:00:00 -0.2 0 Calma 10 Nordeste 0 918.9 1.1 87
2018-01-15 07:00:00 -0.2 0 Calma -- -- 0 918.4 0.7 87
2018-01-15 06:00:00 0.6 0 Calma 8 Nordeste 0 918.2 0.9 78
2018-01-15 05:00:00 1.2 0 Calma 13 Nordeste 0 917.8 0.3 74
2018-01-15 04:00:00 1.9 0 Calma 12 Nordeste 0 917.7 0.4 75
2018-01-15 03:00:00 1.9 2 Nordeste 15 Nordeste 0 917.3 0.5 77
2018-01-15 02:00:00 1.3 0 Calma -- -- 0 917.5 1.1 82
2018-01-15 01:00:00 1.9 0 Calma 16 Nordeste 0 917.3 1.4 78
2018-01-15 00:00:00 1.6 0 Calma 11 Norte 0 916.8 1.1 83
2018-01-14 23:00:00 2 0 Calma -- -- 0 916.4 1 82
2018-01-14 22:00:00 2.2 0 Calma -- -- 0 915.9 0.9 81
2018-01-14 21:00:00 2.2 0 Calma -- -- 0 915.7 0.7 79
2018-01-14 20:00:00 2.6 0 Calma -- -- 0 915.4 0.7 78
2018-01-14 19:00:00 3.3 0 Calma -- -- 0 915 0.3 72
2018-01-14 18:00:00 3.8 0 Calma 12 Norte 0 915 0.5 68
2018-01-14 17:00:00 4 3 Norte 15 Norte 0 914.7 -1 70
2018-01-14 16:00:00 4.3 0 Calma 21 Noroeste 0 914.7 -1.7 78
2018-01-14 15:00:00 3.2 11 Noroeste 26 Noroeste 0 914.5 -1.7 83
2018-01-14 14:00:00 3.2 0 Calma -- -- 0 915.7 -0.2 85
2018-01-14 13:00:00 3 0 Calma -- -- 0 916.4 0.8 90
2018-01-14 12:00:00 2.4 0 Calma -- -- 0.1 916.2 1 92
2018-01-14 11:00:00 1.9 0 Calma 16 Noroeste 0 915.9 0.6 92
2018-01-14 10:00:00 1.5 0 Calma 17 Noroeste 0 915.6 0.4 92
2018-01-14 09:00:00 1.4 5 Noroeste 18 Oeste 0 915.2 0.2 92
2018-01-14 08:00:00 1.5 0 Calma 24 Noroeste 1.3 915.3 0.1 91
2018-01-14 07:00:00 1.5 2 Noroeste 21 Noroeste 1 915.2 -0.1 91
2018-01-14 06:00:00 1.8 4 Noroeste 33 Noroeste 0 915 -0.2 89
2018-01-14 05:00:00 2 12 Noroeste 39 Noroeste 0 915.2 -0.2 85
2018-01-14 04:00:00 1.8 15 Noroeste 37 Noroeste 0 915.3 -0.4 83
2018-01-14 03:00:00 1.7 20 Noroeste 36 Noroeste 0 915.2 -0.3 82
2018-01-14 02:00:00 2.8 7 Noroeste 41 Noroeste 0 915.4 -0.1 79
2018-01-14 01:00:00 3.7 22 Noroeste 39 Noroeste 0 915.7 0 78
2018-01-14 00:00:00 4 5 Oeste 25 Noroeste 0 915.5 0 76
2018-01-13 23:00:00 3.7 8 Oeste 35 Oeste 0 915.5 0.3 78
2018-01-13 22:00:00 3.9 20 Oeste 40 Oeste 0 915.7 0.6 75
2018-01-13 21:00:00 4.9 3 Oeste 22 Noroeste 0 915.5 -0.2 72
2018-01-13 20:00:00 3.9 0 Calma 17 Noroeste 0.1 915.2 -0.8 72
2018-01-13 19:00:00 4.4 0 Calma 33 Noroeste 0 915.1 -0.4 61
2018-01-13 18:00:00 6.6 22 Noroeste 36 Noroeste 0 915.7 -0.4 42
2018-01-13 17:00:00 8.1 3 Oeste 13 Oeste 0 916 -0.6 43
2018-01-13 16:00:00 8.1 0 Calma -- -- 0 915.5 -2.4 49
2018-01-13 15:00:00 6.3 0 Calma 8 Sudoeste 0 916.1 -1.4 53
2018-01-13 14:00:00 6.4 0 Calma 14 Sur 0 916.6 -0.3 52
2018-01-13 13:00:00 6.9 0 Calma 13 Sur 0 917.9 1.4 51
2018-01-13 12:00:00 5.1 0 Calma -- -- 0 917.5 1.6 56
2018-01-13 11:00:00 2.7 0 Calma 11 Sudeste 0 916.9 0.5 65
2018-01-13 10:00:00 0.7 5 Este 17 Sudeste 0 916.5 0.1 72
2018-01-13 09:00:00 0 0 Calma 12 Sudeste 0 915.9 -1.3 73
2018-01-13 08:00:00 -0.6 0 Calma -- -- 0 916.4 -1.5 74
2018-01-13 07:00:00 0.6 0 Calma -- -- 0 916.4 -1.9 72
2018-01-13 06:00:00 0.4 0 Calma -- -- 0 917.2 -1.5 70
2018-01-13 05:00:00 1.1 0 Calma -- -- 0 917.9 -1.6 72
2018-01-13 04:00:00 1 0 Calma -- -- 0 918.3 -2 77
2018-01-13 03:00:00 1.3 0 Calma -- -- 0 918.7 -1.7 81
2018-01-13 02:00:00 0.3 0 Calma -- -- 0 919.5 -1 82
2018-01-13 01:00:00 0.6 0 Calma -- -- 0 920.3 -0.3 78
2018-01-13 00:00:00 2 0 Calma -- -- 0 920.4 -0.3 74
2018-01-12 23:00:00 2.2 0 Calma 12 Norte 0 920.5 -0.1 65
2018-01-12 22:00:00 3.1 0 Calma 19 Norte 0 920.6 0.1 58
2018-01-12 21:00:00 2.8 4 Norte 21 Noroeste 0 920.7 0.2 64
2018-01-12 20:00:00 3.4 10 Noroeste 27 Noroeste 0 920.6 0.2 60
2018-01-12 19:00:00 4.1 2 Norte 53 Norte 0 920.5 -0.1 56
2018-01-12 18:00:00 5.1 17 Norte 36 Norte 0 920.5 -0.5 53
2018-01-12 17:00:00 5.6 21 Norte 42 Norte 0 920.4 -1.2 55
2018-01-12 16:00:00 5.6 19 Norte 39 Norte 0 920.6 -1.2 57
2018-01-12 15:00:00 5.1 21 Noroeste 42 Noroeste 0 921 -0.5 62
2018-01-12 14:00:00 4.5 12 Noroeste 37 Norte 0 921.6 0.6 68
2018-01-12 13:00:00 2.5 12 Noroeste 25 Noroeste 0 921.8 1.4 72
2018-01-12 12:00:00 1 9 Noroeste 25 Noroeste 0 921.5 0.8 75
2018-01-12 11:00:00 -0.3 8 Noroeste 28 Noroeste 0 921 0.9 82
2018-01-12 10:00:00 -1.4 0 Calma 22 Noroeste 0 920.4 0.3 85
2018-01-12 09:00:00 -1.3 0 Calma 17 Norte 0 920.7 0.4 84
2018-01-12 08:00:00 -1.1 0 Calma 27 Norte 0 920.1 0 82
2018-01-12 07:00:00 -0.8 8 Norte 26 Noroeste 0 920.1 -0.8 81
2018-01-12 06:00:00 -0.2 8 Norte 23 Norte 0 920.3 0.1 78
2018-01-12 05:00:00 0.5 5 Noroeste 22 Noroeste 0 920.1 -0.1 73
2018-01-12 04:00:00 0.9 0 Calma 27 Oeste 0 920.9 0.3 75
2018-01-12 03:00:00 0.6 8 Noroeste 31 Noroeste 0 920.2 -0.1 75
2018-01-12 02:00:00 0.6 11 Noroeste 34 Noroeste 0 920.2 -0.1 72
2018-01-12 01:00:00 0.9 14 Noroeste 42 Noroeste 0 920.6 0.5 68
2018-01-12 00:00:00 1.4 22 Noroeste 46 Noroeste 0 920.3 0.4 67
2018-01-11 23:00:00 1.9 25 Noroeste 40 Noroeste 0 920.3 0.9 64
2018-01-11 22:00:00 1.6 16 Noroeste 39 Noroeste 0 920.1 1.2 65
2018-01-11 21:00:00 2 16 Noroeste 38 Noroeste 0 919.9 1.8 64
2018-01-11 20:00:00 2.9 17 Noroeste 39 Noroeste 0 919.4 1.2 62
2018-01-11 19:00:00 3.6 18 Noroeste 46 Noroeste 0 918.9 1.1 59
2018-01-11 18:00:00 4.6 26 Noroeste 51 Noroeste 0 918.1 0.1 57
2018-01-11 17:00:00 4.7 27 Norte 56 Norte 0 918.2 0.3 56
2018-01-11 16:00:00 4.5 27 Noroeste 52 Norte 0.1 917.8 -1.1 63
2018-01-11 15:00:00 4.3 7 Noroeste 35 Noroeste 0 918 -1.2 62
2018-01-11 14:00:00 4.7 0 Calma 0 Calma 0 917.9 -0.8 67
2018-01-11 13:00:00 4.2 0 Calma 3 Oeste 0 918.9 0.8 76
2018-01-11 12:00:00 3.1 0 Calma -- -- 0 919.2 0.8 85
2018-01-11 11:00:00 1.7 0 Calma 0 Calma 0.4 918.7 0.4 86
2018-01-11 10:00:00 1.9 0 Calma -- -- 0 918.1 0.1 81
2018-01-11 09:00:00 1.7 0 Calma -- -- 0 918.4 0 82
2018-01-11 08:00:00 1.6 0 Calma -- -- 0 918.3 -0.6 82
2018-01-11 07:00:00 1.6 0 Calma -- -- 0 918 -0.7 84
2018-01-11 06:00:00 2.2 0 Calma 0 Calma 0 918.4 0 84
2018-01-11 05:00:00 3 0 Calma 0 Calma 0 918.9 0.3 84
2018-01-11 04:00:00 3.2 0 Calma 0 Calma 0 918.7 0.4 84
2018-01-11 03:00:00 3.5 0 Calma -- -- 0 918.4 0.7 88
2018-01-11 02:00:00 3.6 0 Calma 0 Calma 0 918.6 1.5 90
2018-01-11 01:00:00 3.7 0 Calma -- -- 0 918.3 1.8 92
2018-01-11 00:00:00 4.9 0 Calma -- -- 0.7 917.7 0.9 92
2018-01-10 23:00:00 4.8 0 Calma 11 Oeste 3.9 917.1 0.4 91
2018-01-10 22:00:00 5.9 0 Calma -- -- 0 916.5 -1 80
2018-01-10 21:00:00 5.5 0 Calma -- -- 0 916.8 -0.7 75
2018-01-10 20:00:00 5.8 0 Calma -- -- 0 916.7 -0.5 72
2018-01-10 19:00:00 6.1 0 Calma -- -- 0 917.5 0.7 66
2018-01-10 18:00:00 6.8 0 Calma -- -- 0 917.5 0.7 62
2018-01-10 17:00:00 7.1 0 Calma -- -- 0 917.2 0.2 62
2018-01-10 16:00:00 7 0 Calma 0 Calma 0 916.8 -0.3 67
2018-01-10 15:00:00 7 0 Calma 0 Calma 0 916.8 -0.2 74
2018-01-10 14:00:00 6.3 0 Calma -- -- 0 917 0.5 84
2018-01-10 13:00:00 5.5 0 Calma -- -- 0 917.1 1.2 94
2018-01-10 12:00:00 5.1 0 Calma -- -- 0.1 917 1.4 94
2018-01-10 11:00:00 4.5 0 Calma -- -- 0.1 916.5 1.6 94
2018-01-10 10:00:00 4.5 0 Calma -- -- 0 915.9 1.5 93
2018-01-10 09:00:00 3 0 Calma -- -- 0.2 915.6 1.2 91
2018-01-10 08:00:00 2.8 0 Calma -- -- 0.5 914.9 0 91
2018-01-10 07:00:00 2.6 0 Calma -- -- 0.2 914.4 -0.5 91
2018-01-10 06:00:00 2.4 0 Calma -- -- 0.7 914.4 -0.8 91
2018-01-10 05:00:00 2.6 0 Calma -- -- 0.8 914.9 -0.8 90
2018-01-10 04:00:00 2.3 0 Calma -- -- 0.2 914.9 -1.4 89
2018-01-10 03:00:00 2.1 0 Calma -- -- 0.2 915.2 -1.3 88
2018-01-10 02:00:00 2.1 0 Calma -- -- 0.4 915.7 -1.3 85
2018-01-10 01:00:00 2.5 0 Calma -- -- 0.2 916.3 -0.7 78
2018-01-10 00:00:00 2.6 0 Calma -- -- 0.2 916.5 -0.3 72
2018-01-09 23:00:00 2.3 0 Calma -- -- 0 917 0.5 70
2018-01-09 22:00:00 2.5 0 Calma -- -- 0 917 0.6 69
2018-01-09 21:00:00 2.4 0 Calma -- -- 0 916.8 0.5 72
2018-01-09 20:00:00 2.5 0 Calma -- -- 0 916.5 0.5 72
2018-01-09 19:00:00 3.1 0 Calma -- -- 0 916.4 0.2 69
2018-01-09 18:00:00 3.8 0 Calma -- -- 0 916.3 -0.1 66
2018-01-09 17:00:00 4.5 0 Calma -- -- 0 916 -0.8 62
2018-01-09 16:00:00 4.3 0 Calma -- -- 0 916.2 -0.9 63
2018-01-09 15:00:00 4.5 0 Calma -- -- 0 916.4 -0.2 64
2018-01-09 14:00:00 3.8 0 Calma -- -- 0 916.8 1.3 66
2018-01-09 13:00:00 3.9 0 Calma -- -- 0 917.1 2.6 65
2018-01-09 12:00:00 2.9 0 Calma -- -- 0 916.6 2.7 72
2018-01-09 11:00:00 0.1 0 Calma -- -- 0 915.5 2.2 86
2018-01-09 10:00:00 -0.9 0 Calma -- -- 0 914.5 1.3 89
2018-01-09 09:00:00 -2.1 0 Calma -- -- 0 913.9 1.1 88
2018-01-09 08:00:00 -1 0 Calma -- -- 0 913.3 0.7 88
2018-01-09 07:00:00 -1.1 0 Calma -- -- 0 913.2 1.1 88
2018-01-09 06:00:00 -1.4 0 Calma -- -- 0 912.8 1.1 88
2018-01-09 05:00:00 -1.5 0 Calma -- -- 0 912.6 0.9 86
2018-01-09 04:00:00 -0.8 0 Calma -- -- 0 912.1 0.2 87
2018-01-09 03:00:00 -0.9 0 Calma -- -- 0 911.7 -0.1 87
2018-01-09 02:00:00 -0.6 0 Calma -- -- 0 911.7 0.5 86
2018-01-09 01:00:00 0 0 Calma -- -- 0 911.9 0.8 83
2018-01-09 00:00:00 0 0 Calma -- -- 0 911.8 1.2 78
2018-01-08 23:00:00 0.4 0 Calma -- -- 0 911.2 1 75
2018-01-08 22:00:00 0.4 0 Calma -- -- 0 911.1 1.3 72
2018-01-08 21:00:00 1.2 0 Calma -- -- 0 910.6 0.6 65
2018-01-08 20:00:00 2.6 0 Calma -- -- 0 910.2 0.8 62
2018-01-08 19:00:00 3.7 0 Calma -- -- 0 909.8 1.1 57
2018-01-08 18:00:00 7.9 0 Calma -- -- 0 910 1.1 43
2018-01-08 17:00:00 7.5 0 Calma -- -- 0 909.4 0.8 45
2018-01-08 16:00:00 7.4 0 Calma -- -- 0 908.7 -0.1 50
2018-01-08 15:00:00 5.1 0 Calma -- -- 0 908.9 0.5 54
2018-01-08 14:00:00 7.1 0 Calma -- -- 0.1 908.6 1.2 55
2018-01-08 13:00:00 5.6 0 Calma -- -- 0 908.8 2.3 62
2018-01-08 12:00:00 3.9 0 Calma -- -- 0 908.4 2.5 82
2018-01-08 11:00:00 0.8 0 Calma -- -- 0 907.4 1.8 90
2018-01-08 10:00:00 -0.3 0 Calma -- -- 0 906.5 1.1 90
2018-01-08 09:00:00 -1 0 Calma -- -- 0 905.9 1.3 90
2018-01-08 08:00:00 -0.7 0 Calma -- -- 0 905.6 1.3 90
2018-01-08 07:00:00 0 0 Calma -- -- 0 905.4 1.6 90
2018-01-08 06:00:00 -0.2 0 Calma -- -- 0 904.6 1.3 90
2018-01-08 05:00:00 -0.6 0 Calma -- -- 0 904.3 0.8 89
2018-01-08 04:00:00 -1 0 Calma -- -- 0 903.8 0.2 88
2018-01-08 03:00:00 -0.9 0 Calma -- -- 0 903.3 0.1 88
2018-01-08 02:00:00 -1 0 Calma -- -- 0 903.5 0.5 86
2018-01-08 01:00:00 -0.6 0 Calma -- -- 0 903.6 0.7 85
2018-01-08 00:00:00 -0.4 0 Calma -- -- 0 903.2 0.4 81
2018-01-07 23:00:00 0.2 0 Calma -- -- 0 903 0.7 76
2018-01-07 22:00:00 0.1 0 Calma -- -- 0 902.9 1 69
2018-01-07 21:00:00 1.3 0 Calma -- -- 0 902.8 1.6 61
2018-01-07 20:00:00 1.5 0 Calma -- -- 0 902.3 1.4 56
2018-01-07 19:00:00 2.7 0 Calma -- -- 0 901.9 1.2 51
2018-01-07 18:00:00 4.6 0 Calma -- -- 0 901.2 0.6 48
2018-01-07 17:00:00 5.9 0 Calma -- -- 0 900.9 0.4 45
2018-01-07 16:00:00 5.5 0 Calma -- -- 0 900.7 0.2 49
2018-01-07 15:00:00 5.1 0 Calma -- -- 0 900.6 0.8 52
2018-01-07 14:00:00 4.9 0 Calma -- -- 0 900.5 2.2 57
2018-01-07 13:00:00 4.3 0 Calma -- -- 0 900.5 3.2 59
2018-01-07 12:00:00 2.7 0 Calma -- -- 0 899.8 2.7 69
2018-01-07 11:00:00 1.3 0 Calma -- -- 0.2 898.3 1.8 89
2018-01-07 10:00:00 -0.4 0 Calma -- -- 0 897.3 0.9 89
2018-01-07 09:00:00 -0.1 0 Calma -- -- 0.1 897.1 0.8 90
2018-01-07 08:00:00 -0.1 0 Calma -- -- 0 896.5 0 89
2018-01-07 07:00:00 0.7 0 Calma -- -- 0.1 896.4 0.2 87
2018-01-07 06:00:00 0.8 0 Calma -- -- 0 896.3 0.5 87
2018-01-07 05:00:00 0.9 0 Calma -- -- 0 896.5 0.1 87
2018-01-07 04:00:00 0.9 0 Calma -- -- 0 896.2 0.3 88
2018-01-07 03:00:00 0.7 0 Calma -- -- 0 895.8 0.2 88
2018-01-07 02:00:00 0.5 0 Calma -- -- 0 896.4 0.8 88
2018-01-07 01:00:00 0.3 0 Calma -- -- 0 895.9 0.2 91
2018-01-07 00:00:00 0.3 0 Calma -- -- 0 895.6 0.3 93
2018-01-06 23:00:00 0.3 0 Calma -- -- 0 895.6 0.4 93
2018-01-06 22:00:00 0.1 0 Calma -- -- 0.1 895.7 0.8 93
2018-01-06 21:00:00 0 0 Calma -- -- 0.5 895.3 0.6 93
2018-01-06 20:00:00 0.5 0 Calma -- -- 0.2 895.2 0.3 91
2018-01-06 19:00:00 0.9 0 Calma -- -- 0.6 894.9 0.1 90
2018-01-06 18:00:00 4.5 0 Calma -- -- 0.7 894.7 -1 87
2018-01-06 17:00:00 5.1 0 Calma 0 Calma 3.3 894.9 -1.5 81
2018-01-06 16:00:00 7.8 0 Calma -- -- 0 894.8 -2.5 65
2018-01-06 15:00:00 8.1 0 Calma -- -- 0 895.7 -2 63
2018-01-06 14:00:00 8.3 0 Calma -- -- 0 896.4 -1.4 62
2018-01-06 13:00:00 7.6 0 Calma -- -- 0 897.3 -0.6 64
2018-01-06 12:00:00 7.1 0 Calma -- -- 0 897.7 -1 69
2018-01-06 11:00:00 5.2 0 Calma -- -- 0 897.8 -1.1 74
2018-01-06 10:00:00 4.1 0 Calma -- -- 0 897.9 -1.9 74
2018-01-06 09:00:00 4 0 Calma -- -- 0 898.7 -2 72
2018-01-06 08:00:00 4.1 0 Calma -- -- 0 898.9 -2.7 70
2018-01-06 07:00:00 4.5 0 Calma -- -- 0 899.8 -2.7 68
2018-01-06 06:00:00 4.4 0 Calma -- -- 0 900.7 -2.9 66
2018-01-06 05:00:00 4.6 0 Calma -- -- 0 901.6 -3.5 68
2018-01-06 04:00:00 4 0 Calma -- -- 0 902.5 -3.8 71
2018-01-06 03:00:00 3.1 0 Calma -- -- 0 903.6 -3 72
2018-01-06 02:00:00 4.1 0 Calma -- -- 0 905.1 -2.1 69
2018-01-06 01:00:00 4.4 0 Calma -- -- 0 906.3 -1.4 67
2018-01-06 00:00:00 4.8 0 Calma -- -- 0 906.6 -1.9 67
2018-01-05 23:00:00 4.7 0 Calma -- -- 0 907.2 -2 68
2018-01-05 22:00:00 4.9 0 Calma -- -- 0 907.7 -1.9 66
2018-01-05 21:00:00 5.8 0 Calma -- -- 0 908.5 -1.8 65
2018-01-05 20:00:00 6.6 0 Calma 3 Oeste 0 909.2 -1.7 63
2018-01-05 19:00:00 7.1 0 Calma -- -- 0 909.6 -1.9 59
2018-01-05 18:00:00 8.5 0 Calma 4 Noroeste 0 910.3 -2.1 54
2018-01-05 17:00:00 9.7 0 Calma -- -- 0 910.9 -2.8 57
2018-01-05 16:00:00 8.4 0 Calma -- -- 0 911.5 -3.2 59
2018-01-05 15:00:00 8.2 0 Calma -- -- 0 912.4 -3 65
2018-01-05 14:00:00 8.1 0 Calma 17 Oeste 0 913.7 -1.7 62
2018-01-05 13:00:00 8.1 31 Noroeste 43 Noroeste 0 914.7 -1 59
2018-01-05 12:00:00 7.8 15 Noroeste 29 Noroeste 0 915.4 -0.4 68
2018-01-05 11:00:00 7.2 13 Noroeste 29 Noroeste 0 915.4 -0.7 69
2018-01-05 10:00:00 6.8 2 Noroeste 31 Oeste 0 915.7 -0.9 73
2018-01-05 09:00:00 6.6 12 Noroeste 29 Noroeste 0 915.8 -1.3 70
2018-01-05 08:00:00 7 13 Noroeste 41 Oeste 0 916.1 -2.2 69
2018-01-05 07:00:00 7.2 22 Noroeste 43 Noroeste 0 916.6 -2.3 69
2018-01-05 06:00:00 7.4 13 Noroeste 33 Noroeste 0 917.1 -2 70
2018-01-05 05:00:00 7.5 5 Noroeste 32 Noroeste 0 918.3 -1.9 71
2018-01-05 04:00:00 7.6 7 Noroeste 44 Noroeste 0 918.9 -2.2 72
2018-01-05 03:00:00 7.6 22 Noroeste 44 Oeste 0 919.1 -2.5 69
2018-01-05 02:00:00 7.7 23 Noroeste 40 Noroeste 0 920.2 -1.7 69
2018-01-05 01:00:00 7.9 18 Noroeste 47 Noroeste 0 921.1 -1.5 71
2018-01-05 00:00:00 8.2 25 Noroeste 54 Noroeste 0 921.6 -1.4 72
2018-01-04 23:00:00 8.4 27 Noroeste 43 Noroeste 0 921.9 -1 75
2018-01-04 22:00:00 8.9 17 Noroeste 37 Noroeste 0 922.6 -0.2 78
2018-01-04 21:00:00 9.1 15 Noroeste 32 Noroeste 0 923 -0.1 76
2018-01-04 20:00:00 9.3 14 Noroeste 32 Noroeste 0 922.9 -0.9 75
2018-01-04 19:00:00 9.5 16 Noroeste 38 Noroeste 0 922.8 -1.1 75
2018-01-04 18:00:00 9.6 19 Noroeste 42 Noroeste 0 923.1 -1.7 77
2018-01-04 17:00:00 9.5 22 Noroeste 45 Noroeste 0 923.8 -1.4 80
2018-01-04 16:00:00 9.6 13 Noroeste 38 Noroeste 0 923.9 -2.1 79
2018-01-04 15:00:00 9.6 19 Noroeste 48 Noroeste 0 924.8 -1.6 79
2018-01-04 14:00:00 8.9 24 Noroeste 41 Noroeste 0 925.2 -1.2 84
2018-01-04 13:00:00 7.7 19 Noroeste 36 Noroeste 0 926 -0.4 90
2018-01-04 12:00:00 6.9 19 Noroeste 40 Noroeste 0 926.4 0.4 93
2018-01-04 11:00:00 6.9 17 Noroeste 35 Noroeste 0 926.4 0.1 93
2018-01-04 10:00:00 6.8 10 Noroeste 30 Noroeste 0 926.4 -0.3 93
2018-01-04 09:00:00 7 11 Noroeste 33 Norte 0 926 -0.8 93
2018-01-04 08:00:00 7.3 19 Noroeste 39 Norte 0 926.3 -0.9 93
2018-01-04 07:00:00 7.5 4 Noroeste 24 Noroeste 0 926.7 -0.7 92
2018-01-04 06:00:00 7.5 6 Noroeste 27 Noroeste 0 926.8 -1.2 92
2018-01-04 05:00:00 7.6 11 Noroeste 26 Noroeste 0 927.2 -1.3 92
2018-01-04 04:00:00 7.3 12 Noroeste 23 Oeste 0 927.4 -1.3 92
2018-01-04 03:00:00 7.4 4 Noroeste 26 Oeste 0 928 -1.2 92
2018-01-04 02:00:00 7.1 2 Noroeste 31 Noroeste 0 928.5 -0.6 91
2018-01-04 01:00:00 7.6 11 Noroeste 32 Noroeste 0 928.7 0.3 89
2018-01-04 00:00:00 8 13 Norte 30 Norte 0 929.2 0.7 87
2018-01-03 23:00:00 8.1 6 Noroeste 32 Norte 0 929.1 0.7 86
2018-01-03 22:00:00 8.2 17 Norte 36 Norte 0 928.4 0.3 86
2018-01-03 21:00:00 8.3 24 Norte 45 Norte 0 928.5 0.4 85
2018-01-03 20:00:00 8.5 23 Norte 36 Norte 0 928.4 -0.5 83
2018-01-03 19:00:00 8.7 21 Norte 36 Norte 0 928.1 -1.2 83
2018-01-03 18:00:00 8.9 24 Norte 37 Noroeste 0 928.1 -1.3 82
2018-01-03 17:00:00 9.2 11 Noroeste 34 Norte 0 928.9 -0.7 82
2018-01-03 16:00:00 8.8 18 Noroeste 41 Norte 0 929.3 -1.1 81
2018-01-03 15:00:00 8.6 26 Norte 41 Norte 0 929.4 -1.5 84
2018-01-03 14:00:00 8.5 23 Norte 35 Norte 0 929.6 -1 91
2018-01-03 13:00:00 7.2 3 Noroeste 22 Noroeste 0 930.4 0.2 94
2018-01-03 12:00:00 6.9 3 Noroeste 22 Norte 0.1 930.9 1.3 94
2018-01-03 11:00:00 6.2 5 Noroeste 25 Noroeste 0 930.6 1.5 94
2018-01-03 10:00:00 5.9 7 Noroeste 32 Noroeste 0 930.2 1.4 94
2018-01-03 09:00:00 5.8 14 Noroeste 31 Norte 0 929.6 0.7 94
2018-01-03 08:00:00 5.5 20 Noroeste 35 Noroeste 0 929.1 0.2 94
2018-01-03 07:00:00 5.5 21 Norte 41 Norte 0 928.8 0.2 94
2018-01-03 06:00:00 5.1 13 Noroeste 35 Norte 0 928.9 0.4 94
2018-01-03 05:00:00 5 20 Norte 37 Norte 0 928.9 0.3 94
2018-01-03 04:00:00 4.8 10 Noroeste 38 Noroeste 0 928.6 -0.3 92
2018-01-03 03:00:00 4.8 17 Noroeste 39 Noroeste 0 928.5 -0.7 92
2018-01-03 02:00:00 4.5 21 Norte 41 Noroeste 0 928.6 -0.5 90
2018-01-03 01:00:00 4.8 21 Noroeste 41 Noroeste 0 928.9 -0.2 85
2018-01-03 00:00:00 5.6 15 Noroeste 36 Norte 0 929.2 0.4 80
2018-01-02 23:00:00 5.7 13 Noroeste 29 Noroeste 0 929.1 -0.1 79
2018-01-02 22:00:00 5.7 19 Noroeste 35 Norte 0 929.1 -0.2 77
2018-01-02 21:00:00 6.3 16 Noroeste 28 Noroeste 0 928.8 -0.2 77
2018-01-02 20:00:00 6.9 14 Norte 30 Norte 0 929.2 0.7 69
2018-01-02 19:00:00 7.9 13 Noroeste 41 Norte 0 929.3 0.8 62
2018-01-02 18:00:00 8.9 24 Norte 48 Noroeste 0 929 -0.1 56
2018-01-02 17:00:00 9.4 25 Noroeste 55 Noroeste 0 928.5 -1 52
2018-01-02 16:00:00 9.7 30 Noroeste 50 Noroeste 0 928.5 -1.6 52
2018-01-02 15:00:00 9.1 26 Norte 48 Noroeste 0 929.1 -0.9 56
2018-01-02 14:00:00 7.9 19 Noroeste 44 Norte 0 929.5 0.3 60
2018-01-02 13:00:00 7.2 22 Noroeste 44 Noroeste 0 930.1 1.4 63
2018-01-02 12:00:00 6 25 Noroeste 41 Noroeste 0 930 2 72
2018-01-02 11:00:00 4.6 18 Noroeste 34 Noroeste 0 929.2 1.8 81
2018-01-02 10:00:00 3.9 15 Noroeste 30 Noroeste 0 928.7 1.5 85
2018-01-02 09:00:00 4.1 14 Noroeste 35 Noroeste 0 928 0.8 85
2018-01-02 08:00:00 4.3 19 Noroeste 37 Noroeste 0 927.4 -0.3 88
2018-01-02 07:00:00 4 18 Noroeste 36 Noroeste 0 927.2 -0.1 91
2018-01-02 06:00:00 3.9 16 Noroeste 33 Noroeste 0 927.2 0.4 91
2018-01-02 05:00:00 3.7 12 Noroeste 41 Oeste 0 927.7 0.4 91
2018-01-02 04:00:00 3.3 21 Noroeste 39 Noroeste 0 927.3 -0.1 90
2018-01-02 03:00:00 2.9 18 Noroeste 38 Oeste 0 926.8 -0.2 87
2018-01-02 02:00:00 3.4 26 Noroeste 44 Noroeste 0 927.3 -0.1 82
2018-01-02 01:00:00 3.9 15 Noroeste 54 Noroeste 0 927.4 -0.1 79
2018-01-02 00:00:00 4 31 Noroeste 54 Noroeste 0 927 -0.6 75
2018-01-01 23:00:00 4.1 30 Noroeste 54 Noroeste 0 927.4 -0.4 69
2018-01-01 22:00:00 4.7 31 Noroeste 54 Noroeste 0 927.5 -0.2 59
2018-01-01 21:00:00 5.4 26 Noroeste 46 Noroeste 0 927.6 0.2 50
2018-01-01 20:00:00 5.8 21 Noroeste 48 Noroeste 0 927.8 0 45
2018-01-01 19:00:00 7.1 17 Noroeste 39 Noroeste 0 927.7 -0.4 34
2018-01-01 18:00:00 9.3 24 Noroeste 45 Noroeste 0 927.4 -0.9 29
2018-01-01 17:00:00 9.9 30 Noroeste 48 Noroeste 0 927.8 -1.4 29
2018-01-01 16:00:00 9.7 28 Noroeste 50 Oeste 0 928.1 -1.9 31
2018-01-01 15:00:00 9.2 27 Noroeste 41 Noroeste 0 928.3 -2 39
2018-01-01 14:00:00 8.1 19 Noroeste 31 Noroeste 0 929.2 0.1 49
2018-01-01 13:00:00 6 9 Noroeste 27 Noroeste 0 930 1.3 70
2018-01-01 12:00:00 3.7 10 Noroeste 29 Noroeste 0 930.3 2.2 80
2018-01-01 11:00:00 2.7 8 Noroeste 30 Noroeste 0 929.1 1.1 88
2018-01-01 10:00:00 1.9 9 Noroeste 25 Noroeste 0 928.7 0.9 89
2018-01-01 09:00:00 1.7 2 Noroeste 23 Noroeste 0 928.1 0.2 89
2018-01-01 08:00:00 1.8 11 Noroeste 25 Noroeste 0 928 0.4 88
2018-01-01 07:00:00 1.7 10 Noroeste 26 Noroeste 0 927.8 0.1 81
2018-01-01 06:00:00 1.7 10 Noroeste 39 Noroeste 0 927.9 0.8 79
2018-01-01 05:00:00 2.3 14 Noroeste 38 Noroeste 0 927.6 1 80
2018-01-01 04:00:00 2.4 6 Noroeste 37 Norte 0 927.7 1.3 81
2018-01-01 03:00:00 2.9 15 Noroeste 38 Norte 0 927.1 1.5 81
2018-01-01 02:00:00 4.1 15 Noroeste 37 Noroeste 0 926.6 2.3 78
2018-01-01 01:00:00 5.1 23 Noroeste 49 Noroeste 0 926.4 3.4 78
2018-01-01 00:00:00 6.6 23 Noroeste 55 Noroeste 0 925.6 3.3 82
2017-12-31 23:00:00 7.6 0 Calma -- -- 0 924.3 2.6 82
2017-12-31 22:00:00 7 0 Calma -- -- 0 923 1.5 85
2017-12-31 21:00:00 7.4 0 Calma -- -- 0 922.3 1 75
2017-12-31 20:00:00 7.8 0 Calma -- -- 0.1 921.7 0.3 70
2017-12-31 19:00:00 8.1 0 Calma -- -- 0 921.5 0.1 72
2017-12-31 18:00:00 8.7 0 Calma -- -- 0 921.3 -0.5 69
2017-12-31 17:00:00 8.8 0 Calma -- -- 0 921.4 -0.8 73
2017-12-31 16:00:00 9.2 0 Calma -- -- 0 921.4 -1.7 74
2017-12-31 15:00:00 8.4 0 Calma -- -- 0 921.8 -1.7 78
2017-12-31 14:00:00 6.8 0 Calma -- -- 0 922.2 -0.7 87
2017-12-31 13:00:00 5.7 0 Calma -- -- 0 923.1 0.7 91
2017-12-31 12:00:00 7.3 0 Calma -- -- 0 923.5 1.4 91
2017-12-31 11:00:00 6.4 0 Calma -- -- 0 922.9 0.7 94
2017-12-31 10:00:00 5 0 Calma -- -- 0 922.4 0.3 94
2017-12-31 09:00:00 4.2 0 Calma -- -- 0 922.1 -0.6 94
2017-12-31 08:00:00 4.7 0 Calma -- -- 0.1 922.2 -1.2 94
2017-12-31 07:00:00 4.4 0 Calma -- -- 0 922.1 -1.8 94
2017-12-31 06:00:00 4.7 0 Calma -- -- 0 922.7 -1.3 94
2017-12-31 05:00:00 5.1 0 Calma -- -- 0 923.4 -1 93
2017-12-31 04:00:00 5.4 0 Calma -- -- 0 923.9 -1.4 91
2017-12-31 03:00:00 5.6 0 Calma -- -- 0 924 -1.2 91
2017-12-31 02:00:00 5.1 0 Calma -- -- 0 924.4 -1.2 90
2017-12-31 01:00:00 5.8 0 Calma -- -- 0 925.3 0 89